sensor_id;sensor_type;location;lat;lon;timestamp;P1;durP1;ratioP1;P2;durP2;ratioP2
45358;SDS011;31096;49.292;8.710;2022-08-21T00:04:13;4.55;;;2.80;;
45358;SDS011;31096;49.292;8.710;2022-08-21T00:09:04;4.63;;;2.40;;
45358;SDS011;31096;49.292;8.710;2022-08-21T00:13:57;5.63;;;2.75;;
45358;SDS011;31096;49.292;8.710;2022-08-21T00:18:47;6.80;;;2.87;;
45358;SDS011;31096;49.292;8.710;2022-08-21T00:23:39;4.75;;;2.80;;
45358;SDS011;31096;49.292;8.710;2022-08-21T00:28:30;4.50;;;2.90;;
45358;SDS011;31096;49.292;8.710;2022-08-21T00:33:21;4.88;;;3.03;;
45358;SDS011;31096;49.292;8.710;2022-08-21T00:38:13;8.40;;;2.80;;
45358;SDS011;31096;49.292;8.710;2022-08-21T00:43:05;5.20;;;2.73;;
45358;SDS011;31096;49.292;8.710;2022-08-21T00:47:58;4.80;;;2.90;;
45358;SDS011;31096;49.292;8.710;2022-08-21T00:52:50;4.60;;;2.50;;
45358;SDS011;31096;49.292;8.710;2022-08-21T00:57:45;5.70;;;2.58;;
45358;SDS011;31096;49.292;8.710;2022-08-21T01:02:42;4.40;;;2.63;;
45358;SDS011;31096;49.292;8.710;2022-08-21T01:07:33;5.47;;;3.00;;
45358;SDS011;31096;49.292;8.710;2022-08-21T01:12:24;4.47;;;2.50;;
45358;SDS011;31096;49.292;8.710;2022-08-21T01:17:16;4.30;;;2.25;;
45358;SDS011;31096;49.292;8.710;2022-08-21T01:22:07;5.03;;;2.40;;
45358;SDS011;31096;49.292;8.710;2022-08-21T01:27:05;4.32;;;2.35;;
45358;SDS011;31096;49.292;8.710;2022-08-21T01:31:56;4.40;;;2.80;;
45358;SDS011;31096;49.292;8.710;2022-08-21T01:36:49;5.07;;;2.93;;
45358;SDS011;31096;49.292;8.710;2022-08-21T01:41:39;5.00;;;2.80;;
45358;SDS011;31096;49.292;8.710;2022-08-21T01:46:31;5.72;;;2.90;;
45358;SDS011;31096;49.292;8.710;2022-08-21T01:51:22;5.37;;;2.13;;
45358;SDS011;31096;49.292;8.710;2022-08-21T01:56:14;4.45;;;2.30;;
45358;SDS011;31096;49.292;8.710;2022-08-21T02:01:06;4.80;;;2.40;;
45358;SDS011;31096;49.292;8.710;2022-08-21T02:05:57;4.90;;;2.20;;
45358;SDS011;31096;49.292;8.710;2022-08-21T02:10:47;4.22;;;2.42;;
45358;SDS011;31096;49.292;8.710;2022-08-21T02:15:39;4.70;;;2.33;;
45358;SDS011;31096;49.292;8.710;2022-08-21T02:20:31;4.40;;;2.72;;
45358;SDS011;31096;49.292;8.710;2022-08-21T02:25:25;5.13;;;2.77;;
45358;SDS011;31096;49.292;8.710;2022-08-21T02:30:19;5.10;;;2.80;;
45358;SDS011;31096;49.292;8.710;2022-08-21T02:35:16;7.47;;;2.72;;
45358;SDS011;31096;49.292;8.710;2022-08-21T02:40:08;5.00;;;2.83;;
45358;SDS011;31096;49.292;8.710;2022-08-21T02:45:01;3.97;;;2.20;;
45358;SDS011;31096;49.292;8.710;2022-08-21T02:49:52;5.18;;;2.50;;
45358;SDS011;31096;49.292;8.710;2022-08-21T02:54:43;5.23;;;2.77;;
45358;SDS011;31096;49.292;8.710;2022-08-21T02:59:34;5.05;;;2.88;;
45358;SDS011;31096;49.292;8.710;2022-08-21T03:04:24;4.97;;;2.40;;
45358;SDS011;31096;49.292;8.710;2022-08-21T03:09:15;7.15;;;2.80;;
45358;SDS011;31096;49.292;8.710;2022-08-21T03:14:06;4.50;;;2.40;;
45358;SDS011;31096;49.292;8.710;2022-08-21T03:18:57;5.03;;;2.47;;
45358;SDS011;31096;49.292;8.710;2022-08-21T03:23:47;4.80;;;2.38;;
45358;SDS011;31096;49.292;8.710;2022-08-21T03:28:38;5.23;;;3.20;;
45358;SDS011;31096;49.292;8.710;2022-08-21T03:33:29;5.37;;;2.80;;
45358;SDS011;31096;49.292;8.710;2022-08-21T03:38:19;5.53;;;3.05;;
45358;SDS011;31096;49.292;8.710;2022-08-21T03:43:10;5.07;;;2.47;;
45358;SDS011;31096;49.292;8.710;2022-08-21T03:48:03;5.43;;;2.57;;
45358;SDS011;31096;49.292;8.710;2022-08-21T03:52:54;5.65;;;2.58;;
45358;SDS011;31096;49.292;8.710;2022-08-21T03:57:46;4.78;;;2.50;;
45358;SDS011;31096;49.292;8.710;2022-08-21T04:02:37;5.67;;;2.60;;
45358;SDS011;31096;49.292;8.710;2022-08-21T04:07:28;4.82;;;2.60;;
45358;SDS011;31096;49.292;8.710;2022-08-21T04:12:20;4.73;;;2.73;;
45358;SDS011;31096;49.292;8.710;2022-08-21T04:17:11;6.00;;;2.80;;
45358;SDS011;31096;49.292;8.710;2022-08-21T04:22:01;4.93;;;2.80;;
45358;SDS011;31096;49.292;8.710;2022-08-21T04:26:52;4.82;;;2.70;;
45358;SDS011;31096;49.292;8.710;2022-08-21T04:31:43;4.53;;;2.40;;
45358;SDS011;31096;49.292;8.710;2022-08-21T04:36:34;5.30;;;2.90;;
45358;SDS011;31096;49.292;8.710;2022-08-21T04:41:25;5.13;;;3.45;;
45358;SDS011;31096;49.292;8.710;2022-08-21T04:46:16;5.10;;;3.03;;
45358;SDS011;31096;49.292;8.710;2022-08-21T04:51:13;6.05;;;3.00;;
45358;SDS011;31096;49.292;8.710;2022-08-21T04:56:14;4.93;;;2.80;;
45358;SDS011;31096;49.292;8.710;2022-08-21T05:01:42;4.75;;;2.63;;
45358;SDS011;31096;49.292;8.710;2022-08-21T05:06:35;6.40;;;2.90;;
45358;SDS011;31096;49.292;8.710;2022-08-21T05:11:27;4.40;;;2.70;;
45358;SDS011;31096;49.292;8.710;2022-08-21T05:16:20;4.77;;;3.00;;
45358;SDS011;31096;49.292;8.710;2022-08-21T05:21:11;5.60;;;3.33;;
45358;SDS011;31096;49.292;8.710;2022-08-21T05:26:02;5.03;;;2.90;;
45358;SDS011;31096;49.292;8.710;2022-08-21T05:30:54;4.82;;;3.22;;
45358;SDS011;31096;49.292;8.710;2022-08-21T05:35:44;5.90;;;3.10;;
45358;SDS011;31096;49.292;8.710;2022-08-21T05:40:35;4.90;;;3.43;;
45358;SDS011;31096;49.292;8.710;2022-08-21T05:45:28;7.35;;;3.58;;
45358;SDS011;31096;49.292;8.710;2022-08-21T05:50:21;4.60;;;3.10;;
45358;SDS011;31096;49.292;8.710;2022-08-21T05:55:12;4.93;;;3.47;;
45358;SDS011;31096;49.292;8.710;2022-08-21T06:00:03;5.60;;;3.38;;
45358;SDS011;31096;49.292;8.710;2022-08-21T06:04:56;5.63;;;2.90;;
45358;SDS011;31096;49.292;8.710;2022-08-21T06:09:47;5.80;;;3.93;;
45358;SDS011;31096;49.292;8.710;2022-08-21T06:14:39;5.88;;;3.50;;
45358;SDS011;31096;49.292;8.710;2022-08-21T06:19:30;4.95;;;3.30;;
45358;SDS011;31096;49.292;8.710;2022-08-21T06:24:21;6.83;;;3.63;;
45358;SDS011;31096;49.292;8.710;2022-08-21T06:29:12;5.10;;;3.40;;
45358;SDS011;31096;49.292;8.710;2022-08-21T06:40:12;6.77;;;3.70;;
45358;SDS011;31096;49.292;8.710;2022-08-21T06:45:03;5.93;;;3.05;;
45358;SDS011;31096;49.292;8.710;2022-08-21T06:49:55;6.33;;;3.57;;
45358;SDS011;31096;49.292;8.710;2022-08-21T06:54:45;5.20;;;3.40;;
45358;SDS011;31096;49.292;8.710;2022-08-21T06:59:36;6.53;;;3.30;;
45358;SDS011;31096;49.292;8.710;2022-08-21T07:04:27;5.65;;;3.47;;
45358;SDS011;31096;49.292;8.710;2022-08-21T07:09:17;5.83;;;3.50;;
45358;SDS011;31096;49.292;8.710;2022-08-21T07:14:08;10.30;;;3.70;;
45358;SDS011;31096;49.292;8.710;2022-08-21T07:18:59;6.97;;;3.67;;
45358;SDS011;31096;49.292;8.710;2022-08-21T07:23:50;6.60;;;3.20;;
45358;SDS011;31096;49.292;8.710;2022-08-21T07:28:42;5.90;;;3.20;;
45358;SDS011;31096;49.292;8.710;2022-08-21T07:33:33;6.30;;;3.13;;
45358;SDS011;31096;49.292;8.710;2022-08-21T07:38:25;7.35;;;3.80;;
45358;SDS011;31096;49.292;8.710;2022-08-21T07:43:16;6.30;;;3.72;;
45358;SDS011;31096;49.292;8.710;2022-08-21T07:48:08;8.30;;;3.60;;
45358;SDS011;31096;49.292;8.710;2022-08-21T07:52:58;6.57;;;3.47;;
45358;SDS011;31096;49.292;8.710;2022-08-21T07:57:49;6.80;;;3.43;;
45358;SDS011;31096;49.292;8.710;2022-08-21T08:02:40;7.28;;;3.45;;
45358;SDS011;31096;49.292;8.710;2022-08-21T08:07:35;8.50;;;3.37;;
45358;SDS011;31096;49.292;8.710;2022-08-21T08:12:26;7.60;;;4.00;;
45358;SDS011;31096;49.292;8.710;2022-08-21T08:17:20;8.10;;;3.50;;
45358;SDS011;31096;49.292;8.710;2022-08-21T08:22:14;6.43;;;3.63;;
45358;SDS011;31096;49.292;8.710;2022-08-21T08:27:06;6.72;;;3.47;;
45358;SDS011;31096;49.292;8.710;2022-08-21T08:31:56;7.87;;;4.10;;
45358;SDS011;31096;49.292;8.710;2022-08-21T08:36:47;7.55;;;4.07;;
45358;SDS011;31096;49.292;8.710;2022-08-21T08:41:38;6.73;;;4.13;;
45358;SDS011;31096;49.292;8.710;2022-08-21T08:46:31;6.40;;;4.07;;
45358;SDS011;31096;49.292;8.710;2022-08-21T08:51:46;7.60;;;4.20;;
45358;SDS011;31096;49.292;8.710;2022-08-21T08:56:47;8.67;;;5.70;;
45358;SDS011;31096;49.292;8.710;2022-08-21T09:01:40;7.70;;;3.97;;
45358;SDS011;31096;49.292;8.710;2022-08-21T09:16:46;7.57;;;4.10;;
45358;SDS011;31096;49.292;8.710;2022-08-21T09:26:53;7.43;;;3.53;;
45358;SDS011;31096;49.292;8.710;2022-08-21T09:31:52;7.57;;;3.83;;
45358;SDS011;31096;49.292;8.710;2022-08-21T09:36:46;6.53;;;3.95;;
45358;SDS011;31096;49.292;8.710;2022-08-21T09:41:39;7.70;;;4.05;;
45358;SDS011;31096;49.292;8.710;2022-08-21T09:46:30;8.20;;;4.17;;
45358;SDS011;31096;49.292;8.710;2022-08-21T09:51:31;6.73;;;4.00;;
45358;SDS011;31096;49.292;8.710;2022-08-21T09:56:27;6.78;;;4.03;;
45358;SDS011;31096;49.292;8.710;2022-08-21T10:01:45;6.43;;;3.37;;
45358;SDS011;31096;49.292;8.710;2022-08-21T10:06:40;8.70;;;4.13;;
45358;SDS011;31096;49.292;8.710;2022-08-21T10:11:31;7.28;;;3.60;;
45358;SDS011;31096;49.292;8.710;2022-08-21T10:27:53;7.13;;;3.72;;
45358;SDS011;31096;49.292;8.710;2022-08-21T10:48:34;7.43;;;4.50;;
45358;SDS011;31096;49.292;8.710;2022-08-21T10:53:45;6.10;;;3.77;;
45358;SDS011;31096;49.292;8.710;2022-08-21T10:59:07;7.78;;;4.00;;
45358;SDS011;31096;49.292;8.710;2022-08-21T11:04:50;12.18;;;3.60;;
45358;SDS011;31096;49.292;8.710;2022-08-21T11:33:31;6.13;;;3.77;;
45358;SDS011;31096;49.292;8.710;2022-08-21T11:38:58;7.00;;;3.80;;
45358;SDS011;31096;49.292;8.710;2022-08-21T11:44:11;6.38;;;3.67;;
45358;SDS011;31096;49.292;8.710;2022-08-21T11:55:38;7.32;;;4.10;;
45358;SDS011;31096;49.292;8.710;2022-08-21T12:05:32;5.47;;;3.47;;
45358;SDS011;31096;49.292;8.710;2022-08-21T12:10:37;6.43;;;3.33;;
45358;SDS011;31096;49.292;8.710;2022-08-21T12:15:31;5.55;;;3.55;;
45358;SDS011;31096;49.292;8.710;2022-08-21T12:25:24;6.20;;;3.67;;
45358;SDS011;31096;49.292;8.710;2022-08-21T12:30:35;4.60;;;3.30;;
45358;SDS011;31096;49.292;8.710;2022-08-21T12:35:33;5.83;;;3.50;;
45358;SDS011;31096;49.292;8.710;2022-08-21T12:41:15;5.82;;;3.28;;
45358;SDS011;31096;49.292;8.710;2022-08-21T12:45:57;5.63;;;3.80;;
45358;SDS011;31096;49.292;8.710;2022-08-21T12:50:52;6.77;;;4.90;;
45358;SDS011;31096;49.292;8.710;2022-08-21T12:55:50;5.85;;;3.95;;
45358;SDS011;31096;49.292;8.710;2022-08-21T13:00:44;7.18;;;4.78;;
45358;SDS011;31096;49.292;8.710;2022-08-21T13:05:40;6.23;;;3.70;;
45358;SDS011;31096;49.292;8.710;2022-08-21T13:10:32;6.47;;;4.47;;
45358;SDS011;31096;49.292;8.710;2022-08-21T13:15:37;7.00;;;5.00;;
45358;SDS011;31096;49.292;8.710;2022-08-21T13:20:32;5.60;;;3.90;;
45358;SDS011;31096;49.292;8.710;2022-08-21T13:25:29;6.33;;;3.57;;
45358;SDS011;31096;49.292;8.710;2022-08-21T13:30:25;6.10;;;3.67;;
45358;SDS011;31096;49.292;8.710;2022-08-21T13:35:21;5.43;;;3.72;;
45358;SDS011;31096;49.292;8.710;2022-08-21T13:40:26;7.17;;;3.83;;
45358;SDS011;31096;49.292;8.710;2022-08-21T13:45:27;4.97;;;3.40;;
45358;SDS011;31096;49.292;8.710;2022-08-21T13:50:23;5.53;;;3.33;;
45358;SDS011;31096;49.292;8.710;2022-08-21T13:55:15;7.67;;;3.43;;
45358;SDS011;31096;49.292;8.710;2022-08-21T14:00:20;4.57;;;3.25;;
45358;SDS011;31096;49.292;8.710;2022-08-21T14:05:22;5.03;;;3.15;;
45358;SDS011;31096;49.292;8.710;2022-08-21T14:10:18;5.63;;;3.20;;
45358;SDS011;31096;49.292;8.710;2022-08-21T14:15:15;5.70;;;3.03;;
45358;SDS011;31096;49.292;8.710;2022-08-21T14:20:10;6.03;;;3.10;;
45358;SDS011;31096;49.292;8.710;2022-08-21T14:30:27;4.17;;;2.70;;
45358;SDS011;31096;49.292;8.710;2022-08-21T14:35:22;4.72;;;3.20;;
45358;SDS011;31096;49.292;8.710;2022-08-21T14:40:12;5.93;;;3.23;;
45358;SDS011;31096;49.292;8.710;2022-08-21T14:45:49;4.70;;;3.20;;
45358;SDS011;31096;49.292;8.710;2022-08-21T14:50:19;4.82;;;2.92;;
45358;SDS011;31096;49.292;8.710;2022-08-21T14:55:10;3.87;;;2.40;;
45358;SDS011;31096;49.292;8.710;2022-08-21T15:00:04;4.80;;;3.08;;
45358;SDS011;31096;49.292;8.710;2022-08-21T15:04:57;4.55;;;2.95;;
45358;SDS011;31096;49.292;8.710;2022-08-21T15:09:47;4.80;;;2.73;;
45358;SDS011;31096;49.292;8.710;2022-08-21T15:14:38;5.00;;;3.23;;
45358;SDS011;31096;49.292;8.710;2022-08-21T15:19:30;5.00;;;2.90;;
45358;SDS011;31096;49.292;8.710;2022-08-21T15:24:21;4.43;;;2.53;;
45358;SDS011;31096;49.292;8.710;2022-08-21T15:29:12;4.90;;;2.73;;
45358;SDS011;31096;49.292;8.710;2022-08-21T15:34:03;5.03;;;2.83;;
45358;SDS011;31096;49.292;8.710;2022-08-21T15:38:54;4.47;;;3.20;;
45358;SDS011;31096;49.292;8.710;2022-08-21T15:43:45;5.05;;;3.00;;
45358;SDS011;31096;49.292;8.710;2022-08-21T15:48:41;5.40;;;2.77;;
45358;SDS011;31096;49.292;8.710;2022-08-21T15:53:32;5.10;;;2.83;;
45358;SDS011;31096;49.292;8.710;2022-08-21T15:58:28;4.60;;;2.90;;
45358;SDS011;31096;49.292;8.710;2022-08-21T16:03:19;5.73;;;3.57;;
45358;SDS011;31096;49.292;8.710;2022-08-21T16:08:11;4.55;;;2.95;;
45358;SDS011;31096;49.292;8.710;2022-08-21T16:13:03;5.63;;;3.10;;
45358;SDS011;31096;49.292;8.710;2022-08-21T16:18:04;5.07;;;3.03;;
45358;SDS011;31096;49.292;8.710;2022-08-21T16:22:56;6.00;;;2.80;;
45358;SDS011;31096;49.292;8.710;2022-08-21T16:27:48;5.07;;;3.13;;
45358;SDS011;31096;49.292;8.710;2022-08-21T16:32:44;5.63;;;3.83;;
45358;SDS011;31096;49.292;8.710;2022-08-21T16:37:35;4.47;;;2.70;;
45358;SDS011;31096;49.292;8.710;2022-08-21T16:42:26;5.27;;;2.67;;
45358;SDS011;31096;49.292;8.710;2022-08-21T16:47:17;5.10;;;3.20;;
45358;SDS011;31096;49.292;8.710;2022-08-21T16:52:08;5.50;;;3.00;;
45358;SDS011;31096;49.292;8.710;2022-08-21T16:56:59;4.67;;;3.13;;
45358;SDS011;31096;49.292;8.710;2022-08-21T17:01:50;7.03;;;3.20;;
45358;SDS011;31096;49.292;8.710;2022-08-21T17:06:42;6.28;;;2.78;;
45358;SDS011;31096;49.292;8.710;2022-08-21T17:11:34;6.17;;;3.17;;
45358;SDS011;31096;49.292;8.710;2022-08-21T17:16:34;5.70;;;3.53;;
45358;SDS011;31096;49.292;8.710;2022-08-21T17:21:25;6.55;;;3.38;;
45358;SDS011;31096;49.292;8.710;2022-08-21T17:26:16;4.93;;;3.23;;
45358;SDS011;31096;49.292;8.710;2022-08-21T17:31:08;5.40;;;3.92;;
45358;SDS011;31096;49.292;8.710;2022-08-21T17:36:00;8.17;;;3.57;;
45358;SDS011;31096;49.292;8.710;2022-08-21T17:40:52;6.13;;;3.73;;
45358;SDS011;31096;49.292;8.710;2022-08-21T17:45:43;5.60;;;3.00;;
45358;SDS011;31096;49.292;8.710;2022-08-21T17:50:34;7.03;;;3.42;;
45358;SDS011;31096;49.292;8.710;2022-08-21T17:55:27;5.10;;;3.10;;
45358;SDS011;31096;49.292;8.710;2022-08-21T18:00:18;4.47;;;2.97;;
45358;SDS011;31096;49.292;8.710;2022-08-21T18:05:11;5.97;;;2.90;;
45358;SDS011;31096;49.292;8.710;2022-08-21T18:10:06;5.77;;;2.90;;
45358;SDS011;31096;49.292;8.710;2022-08-21T18:15:02;7.05;;;3.08;;
45358;SDS011;31096;49.292;8.710;2022-08-21T18:19:54;5.45;;;3.15;;
45358;SDS011;31096;49.292;8.710;2022-08-21T18:24:45;5.10;;;3.00;;
45358;SDS011;31096;49.292;8.710;2022-08-21T18:29:37;5.80;;;3.50;;
45358;SDS011;31096;49.292;8.710;2022-08-21T18:34:29;7.68;;;3.05;;
45358;SDS011;31096;49.292;8.710;2022-08-21T18:39:30;6.45;;;3.25;;
45358;SDS011;31096;49.292;8.710;2022-08-21T18:44:22;6.17;;;2.90;;
45358;SDS011;31096;49.292;8.710;2022-08-21T18:49:16;5.72;;;3.10;;
45358;SDS011;31096;49.292;8.710;2022-08-21T18:54:08;5.45;;;2.65;;
45358;SDS011;31096;49.292;8.710;2022-08-21T18:58:59;5.60;;;3.10;;
45358;SDS011;31096;49.292;8.710;2022-08-21T19:03:50;4.40;;;2.83;;
45358;SDS011;31096;49.292;8.710;2022-08-21T19:08:41;5.07;;;3.00;;
45358;SDS011;31096;49.292;8.710;2022-08-21T19:13:32;5.07;;;2.90;;
45358;SDS011;31096;49.292;8.710;2022-08-21T19:18:24;6.77;;;3.30;;
45358;SDS011;31096;49.292;8.710;2022-08-21T19:23:17;4.85;;;2.47;;
45358;SDS011;31096;49.292;8.710;2022-08-21T19:28:09;4.97;;;3.05;;
45358;SDS011;31096;49.292;8.710;2022-08-21T19:33:05;6.23;;;3.07;;
45358;SDS011;31096;49.292;8.710;2022-08-21T19:37:57;6.13;;;3.37;;
45358;SDS011;31096;49.292;8.710;2022-08-21T19:42:47;6.45;;;3.10;;
45358;SDS011;31096;49.292;8.710;2022-08-21T19:47:45;5.33;;;3.00;;
45358;SDS011;31096;49.292;8.710;2022-08-21T19:52:37;6.35;;;3.00;;
45358;SDS011;31096;49.292;8.710;2022-08-21T19:57:28;5.60;;;2.70;;
45358;SDS011;31096;49.292;8.710;2022-08-21T20:02:19;4.85;;;3.08;;
45358;SDS011;31096;49.292;8.710;2022-08-21T20:07:10;6.07;;;2.87;;
45358;SDS011;31096;49.292;8.710;2022-08-21T20:12:02;5.32;;;3.03;;
45358;SDS011;31096;49.292;8.710;2022-08-21T20:16:59;5.43;;;3.00;;
45358;SDS011;31096;49.292;8.710;2022-08-21T20:21:59;5.20;;;2.85;;
45358;SDS011;31096;49.292;8.710;2022-08-21T20:26:50;5.75;;;3.30;;
45358;SDS011;31096;49.292;8.710;2022-08-21T20:31:41;7.70;;;3.27;;
45358;SDS011;31096;49.292;8.710;2022-08-21T20:36:31;6.38;;;3.03;;
45358;SDS011;31096;49.292;8.710;2022-08-21T20:41:22;6.40;;;3.43;;
45358;SDS011;31096;49.292;8.710;2022-08-21T20:46:22;9.27;;;3.22;;
45358;SDS011;31096;49.292;8.710;2022-08-21T20:56:32;5.10;;;2.70;;
45358;SDS011;31096;49.292;8.710;2022-08-21T21:01:40;5.83;;;3.20;;
45358;SDS011;31096;49.292;8.710;2022-08-21T21:06:31;5.13;;;2.97;;
45358;SDS011;31096;49.292;8.710;2022-08-21T21:11:33;4.60;;;2.75;;
45358;SDS011;31096;49.292;8.710;2022-08-21T21:16:50;6.70;;;3.00;;
45358;SDS011;31096;49.292;8.710;2022-08-21T21:21:48;7.30;;;3.40;;
45358;SDS011;31096;49.292;8.710;2022-08-21T21:26:53;5.03;;;2.78;;
45358;SDS011;31096;49.292;8.710;2022-08-21T21:32:00;6.90;;;3.10;;
45358;SDS011;31096;49.292;8.710;2022-08-21T21:37:24;5.32;;;2.88;;
45358;SDS011;31096;49.292;8.710;2022-08-21T21:42:20;6.13;;;3.00;;
45358;SDS011;31096;49.292;8.710;2022-08-21T22:04:00;4.73;;;3.13;;
45358;SDS011;31096;49.292;8.710;2022-08-21T22:09:23;4.93;;;2.92;;
45358;SDS011;31096;49.292;8.710;2022-08-21T22:14:48;5.97;;;3.35;;
45358;SDS011;31096;49.292;8.710;2022-08-21T22:19:39;5.83;;;2.97;;
45358;SDS011;31096;49.292;8.710;2022-08-21T22:24:33;6.60;;;3.13;;
45358;SDS011;31096;49.292;8.710;2022-08-21T22:29:43;6.50;;;3.40;;
45358;SDS011;31096;49.292;8.710;2022-08-21T22:34:43;5.22;;;3.00;;
45358;SDS011;31096;49.292;8.710;2022-08-21T22:40:03;5.95;;;2.75;;
45358;SDS011;31096;49.292;8.710;2022-08-21T22:45:00;5.83;;;3.20;;
45358;SDS011;31096;49.292;8.710;2022-08-21T22:49:56;5.07;;;3.03;;
45358;SDS011;31096;49.292;8.710;2022-08-21T22:54:47;6.28;;;3.33;;
45358;SDS011;31096;49.292;8.710;2022-08-21T23:00:03;4.95;;;3.15;;
45358;SDS011;31096;49.292;8.710;2022-08-21T23:05:14;5.20;;;2.50;;
45358;SDS011;31096;49.292;8.710;2022-08-21T23:10:30;5.80;;;3.28;;
45358;SDS011;31096;49.292;8.710;2022-08-21T23:15:34;6.07;;;2.85;;
45358;SDS011;31096;49.292;8.710;2022-08-21T23:30:54;6.78;;;3.33;;
45358;SDS011;31096;49.292;8.710;2022-08-21T23:36:23;7.90;;;3.67;;
45358;SDS011;31096;49.292;8.710;2022-08-21T23:42:27;5.07;;;2.90;;
45358;SDS011;31096;49.292;8.710;2022-08-21T23:47:00;7.20;;;3.17;;
